createdAt,value
2023-02-11T00:01:53.519Z,7.59
2023-02-11T00:04:22.419Z,7.59
2023-02-11T00:06:50.904Z,7.60
2023-02-11T00:09:20.561Z,7.61
2023-02-11T00:11:49.203Z,7.66
2023-02-11T00:14:17.778Z,7.61
2023-02-11T00:16:46.378Z,7.58
2023-02-11T00:19:14.838Z,7.57
2023-02-11T00:21:43.049Z,7.61
2023-02-11T00:24:11.462Z,7.58
2023-02-11T00:26:41.290Z,7.60
2023-02-11T00:29:10.515Z,7.58
2023-02-11T00:31:38.927Z,7.56
2023-02-11T00:34:07.722Z,7.62
2023-02-11T00:36:35.984Z,7.59
2023-02-11T00:39:04.223Z,7.60
2023-02-11T00:41:32.840Z,7.65
2023-02-11T00:44:03.721Z,7.65
2023-02-11T00:46:32.224Z,7.60
2023-02-11T00:49:01.015Z,7.64
2023-02-11T00:51:30.194Z,7.59
2023-02-11T00:53:58.277Z,7.56
2023-02-11T00:56:26.546Z,7.62
2023-02-11T00:58:54.888Z,7.59
2023-02-11T01:01:24.889Z,7.55
2023-02-11T01:03:52.969Z,7.50
2023-02-11T01:06:23.632Z,7.47
2023-02-11T01:08:51.691Z,7.48
2023-02-11T01:11:21.883Z,7.51
2023-02-11T01:13:51.129Z,7.45
2023-02-11T01:16:19.884Z,7.48
2023-02-11T01:18:49.455Z,7.51
2023-02-11T01:21:18.971Z,7.48
2023-02-11T01:23:47.193Z,7.48
2023-02-11T01:26:15.344Z,7.50
2023-02-11T01:28:43.539Z,7.52
2023-02-11T01:31:11.819Z,7.48
2023-02-11T01:33:40.034Z,7.48
2023-02-11T01:36:09.911Z,7.47
2023-02-11T01:38:38.086Z,7.41
2023-02-11T01:41:07.660Z,7.46
2023-02-11T01:43:36.812Z,7.42
2023-02-11T01:46:14.086Z,7.44
2023-02-11T01:48:43.976Z,7.41
2023-02-11T01:51:15.361Z,7.41
2023-02-11T01:54:02.544Z,7.39
2023-02-11T01:56:49.600Z,7.35
2023-02-11T01:59:19.969Z,7.31
2023-02-11T02:01:52.205Z,7.26
2023-02-11T02:04:21.134Z,7.31
2023-02-11T02:06:54.292Z,7.28
2023-02-11T02:09:24.438Z,7.25
2023-02-11T02:11:52.804Z,7.25
2023-02-11T02:14:21.090Z,7.26
2023-02-11T02:16:49.353Z,7.17
2023-02-11T02:19:35.789Z,7.18
2023-02-11T02:22:17.891Z,7.16
2023-02-11T02:24:57.919Z,7.15
2023-02-11T02:27:31.319Z,7.21
2023-02-11T02:30:14.324Z,7.16
2023-02-11T02:32:57.365Z,7.17
2023-02-11T02:35:30.722Z,7.08
2023-02-11T02:38:02.717Z,7.11
2023-02-11T02:40:32.843Z,7.07
2023-02-11T02:43:02.148Z,7.13
2023-02-11T02:45:30.489Z,7.10
2023-02-11T02:47:58.727Z,7.11
2023-02-11T02:50:30.892Z,7.14
2023-02-11T02:53:05.977Z,7.17
2023-02-11T02:55:41.195Z,7.20
2023-02-11T02:58:22.828Z,7.19
2023-02-11T03:00:55.905Z,7.19
2023-02-11T03:03:28.613Z,7.16
2023-02-11T03:06:01.476Z,7.15
2023-02-11T03:08:33.468Z,7.16
2023-02-11T03:11:03.047Z,7.22
2023-02-11T03:13:33.847Z,7.15
2023-02-11T03:16:06.031Z,7.16
2023-02-11T03:18:36.547Z,7.17
2023-02-11T03:21:09.081Z,7.15
2023-02-11T03:23:38.737Z,7.18
2023-02-11T03:26:10.476Z,7.17
2023-02-11T03:28:43.706Z,7.20
2023-02-11T03:31:13.707Z,7.20
2023-02-11T03:33:44.300Z,7.18
2023-02-11T03:36:18.549Z,7.15
2023-02-11T03:38:49.275Z,7.17
2023-02-11T03:41:19.272Z,7.17
2023-02-11T03:43:50.043Z,7.14
2023-02-11T03:46:20.609Z,7.22
2023-02-11T03:48:50.955Z,7.22
2023-02-11T03:51:22.336Z,7.18
2023-02-11T03:53:53.974Z,7.20
2023-02-11T03:56:24.914Z,7.17
2023-02-11T03:58:52.992Z,7.22
2023-02-11T04:01:21.126Z,7.17
2023-02-11T04:03:49.239Z,7.17
2023-02-11T04:06:17.315Z,7.20
2023-02-11T04:08:46.957Z,7.19
2023-02-11T04:11:15.036Z,7.16
2023-02-11T04:13:43.391Z,7.23
2023-02-11T04:16:11.387Z,7.24
2023-02-11T04:18:39.426Z,7.20
2023-02-11T04:21:07.616Z,7.26
2023-02-11T04:23:35.639Z,7.29
2023-02-11T04:26:05.574Z,7.28
2023-02-11T04:28:35.018Z,7.25
2023-02-11T04:31:03.259Z,7.28
2023-02-11T04:33:31.410Z,7.29
2023-02-11T04:35:59.576Z,7.31
2023-02-11T04:38:27.901Z,7.31
2023-02-11T04:40:55.949Z,7.28
2023-02-11T04:43:25.455Z,7.27
2023-02-11T04:45:53.814Z,7.31
2023-02-11T04:48:22.095Z,7.30
2023-02-11T04:50:50.268Z,7.34
2023-02-11T04:53:18.367Z,7.32
2023-02-11T04:55:46.749Z,7.30
2023-02-11T04:58:14.839Z,7.35
2023-02-11T05:00:44.500Z,7.35
2023-02-11T05:03:13.078Z,7.29
2023-02-11T05:05:41.606Z,7.29
2023-02-11T05:08:10.259Z,7.36
2023-02-11T05:10:38.535Z,7.36
2023-02-11T05:13:06.685Z,7.37
2023-02-11T05:15:34.860Z,7.39
2023-02-11T05:18:04.600Z,7.37
2023-02-11T05:20:32.680Z,7.32
2023-02-11T05:23:00.999Z,7.35
2023-02-11T05:25:29.025Z,7.29
2023-02-11T05:27:57.220Z,7.29
2023-02-11T05:30:25.432Z,7.25
2023-02-11T05:32:53.589Z,7.26
2023-02-11T05:35:23.232Z,7.28
2023-02-11T05:37:51.392Z,7.25
2023-02-11T05:40:19.668Z,7.27
2023-02-11T05:42:47.709Z,7.29
2023-02-11T05:45:15.786Z,7.30
2023-02-11T05:47:43.985Z,7.27
2023-02-11T05:50:12.066Z,7.21
2023-02-11T05:52:41.622Z,7.22
2023-02-11T05:55:09.980Z,7.16
2023-02-11T05:57:38.140Z,7.17
2023-02-11T06:00:07.394Z,7.18
2023-02-11T06:02:41.453Z,7.12
2023-02-11T06:05:10.018Z,7.15
2023-02-11T06:07:38.247Z,7.21
2023-02-11T06:10:08.950Z,7.22
2023-02-11T06:12:37.525Z,7.19
2023-02-11T06:15:06.067Z,7.14
2023-02-11T06:17:34.520Z,7.16
2023-02-11T06:20:02.973Z,7.15
2023-02-11T06:22:31.871Z,7.13
2023-02-11T06:25:02.096Z,7.06
2023-02-11T06:27:33.234Z,7.06
2023-02-11T06:30:01.413Z,7.03
2023-02-11T06:32:46.158Z,7.02
2023-02-11T06:35:15.568Z,7.02
2023-02-11T06:37:44.131Z,7.03
2023-02-11T06:40:12.760Z,7.03
2023-02-11T06:42:42.575Z,6.98
2023-02-11T06:45:11.234Z,6.98
2023-02-11T06:47:39.456Z,7.02
2023-02-11T06:50:08.286Z,6.96
2023-02-11T06:52:36.494Z,6.99
2023-02-11T06:55:04.789Z,6.99
2023-02-11T06:57:33.481Z,6.98
2023-02-11T07:00:03.051Z,6.99
2023-02-11T07:02:31.931Z,6.97
2023-02-11T07:05:00.159Z,6.99
2023-02-11T07:07:28.721Z,6.97
2023-02-11T07:09:56.810Z,6.99
2023-02-11T07:12:25.082Z,6.96
2023-02-11T07:14:53.176Z,6.90
2023-02-11T07:17:22.798Z,6.96
2023-02-11T07:19:51.087Z,6.96
2023-02-11T07:22:19.156Z,6.95
2023-02-11T07:24:47.391Z,6.98
2023-02-11T07:27:15.630Z,6.90
2023-02-11T07:29:45.921Z,7.01
2023-02-11T07:32:14.271Z,6.99
2023-02-11T07:34:43.843Z,6.92
2023-02-11T07:37:12.094Z,6.98
2023-02-11T07:39:40.192Z,7.00
2023-02-11T07:42:08.671Z,6.99
2023-02-11T07:44:37.088Z,7.00
2023-02-11T07:47:05.665Z,7.01
2023-02-11T07:49:33.958Z,6.99
2023-02-11T07:52:03.773Z,6.96
2023-02-11T07:54:31.944Z,6.88
2023-02-11T07:57:00.112Z,6.89
2023-02-11T07:59:28.200Z,6.89
2023-02-11T08:01:56.439Z,6.81
2023-02-11T08:04:24.691Z,6.83
2023-02-11T08:06:58.677Z,6.89
2023-02-11T08:09:28.705Z,6.89
2023-02-11T08:11:56.722Z,6.89
2023-02-11T08:14:25.377Z,6.88
2023-02-11T08:16:53.544Z,6.85
2023-02-11T08:19:21.703Z,6.88
2023-02-11T08:21:49.867Z,6.92
2023-02-11T08:24:18.028Z,6.90
2023-02-11T08:26:47.618Z,6.96
2023-02-11T08:29:17.357Z,7.00
2023-02-11T08:31:47.090Z,7.02
2023-02-11T08:34:18.385Z,7.02
2023-02-11T08:36:47.382Z,7.03
2023-02-11T08:39:19.740Z,7.03
2023-02-11T08:41:51.463Z,7.08
2023-02-11T08:44:19.944Z,7.11
2023-02-11T08:46:49.460Z,7.07
2023-02-11T08:49:17.878Z,7.10
2023-02-11T08:51:46.328Z,7.11
2023-02-11T08:54:14.894Z,7.14
2023-02-11T08:56:43.208Z,7.13
2023-02-11T08:59:14.975Z,7.15
2023-02-11T09:01:44.427Z,7.13
2023-02-11T09:04:12.902Z,7.22
2023-02-11T09:06:41.434Z,7.23
2023-02-11T09:09:11.940Z,7.27
2023-02-11T09:11:40.942Z,7.24
2023-02-11T09:14:09.002Z,7.28
2023-02-11T09:16:40.893Z,7.28
2023-02-11T09:19:11.526Z,7.31
2023-02-11T09:21:40.005Z,7.34
2023-02-11T09:24:08.200Z,7.37
2023-02-11T09:26:36.949Z,7.39
2023-02-11T09:29:05.670Z,7.40
2023-02-11T09:31:35.089Z,7.44
2023-02-11T09:34:05.613Z,7.43
2023-02-11T09:36:34.606Z,7.54
2023-02-11T09:39:03.339Z,7.50
2023-02-11T09:41:43.889Z,7.56
2023-02-11T09:44:18.844Z,7.58
2023-02-11T09:46:47.826Z,7.70
2023-02-11T09:49:20.711Z,7.72
2023-02-11T09:51:51.371Z,7.81
2023-02-11T09:54:22.941Z,7.87
2023-02-11T09:56:51.076Z,7.91
2023-02-11T09:59:20.350Z,7.92
2023-02-11T10:01:51.461Z,7.94
2023-02-11T10:04:30.035Z,8.00
2023-02-11T10:07:02.286Z,8.07
2023-02-11T10:09:36.801Z,8.20
2023-02-11T10:12:13.755Z,8.28
2023-02-11T10:15:06.162Z,8.37
2023-02-11T10:17:38.957Z,8.62
2023-02-11T10:20:17.304Z,8.82
2023-02-11T10:22:49.441Z,8.96
2023-02-11T10:25:23.878Z,9.08
2023-02-11T10:27:53.327Z,9.18
2023-02-11T10:30:25.163Z,9.29
2023-02-11T10:32:56.920Z,9.37
2023-02-11T10:35:27.276Z,9.33
2023-02-11T10:37:56.058Z,9.43
2023-02-11T10:40:25.294Z,9.46
2023-02-11T10:42:55.774Z,9.44
2023-02-11T10:45:28.234Z,9.49
2023-02-11T10:47:56.528Z,9.57
2023-02-11T10:50:27.105Z,9.62
2023-02-11T10:53:12.196Z,9.77
2023-02-11T10:55:40.674Z,9.82
2023-02-11T10:58:08.784Z,9.95
2023-02-11T11:00:38.974Z,9.92
2023-02-11T11:03:08.683Z,9.96
2023-02-11T11:05:39.865Z,9.97
2023-02-11T11:08:08.934Z,10.02
2023-02-11T11:10:44.753Z,10.03
2023-02-11T11:13:25.422Z,10.10
2023-02-11T11:16:08.299Z,10.07
2023-02-11T11:18:36.855Z,10.14
2023-02-11T11:21:07.766Z,10.23
2023-02-11T11:23:36.594Z,10.29
2023-02-11T11:26:06.536Z,10.27
2023-02-11T11:28:39.017Z,10.34
2023-02-11T11:31:14.053Z,10.37
2023-02-11T11:33:43.992Z,10.28
2023-02-11T11:36:15.012Z,10.28
2023-02-11T11:38:45.447Z,10.35
2023-02-11T11:41:22.054Z,10.30
2023-02-11T11:43:57.224Z,10.33
2023-02-11T11:46:26.568Z,10.25
2023-02-11T11:48:57.218Z,10.11
2023-02-11T11:51:27.369Z,10.17
2023-02-11T11:53:58.707Z,10.07
2023-02-11T11:56:28.809Z,10.11
2023-02-11T11:58:58.445Z,10.02
2023-02-11T12:01:32.254Z,9.94
2023-02-11T12:04:14.761Z,9.90
2023-02-11T12:06:52.032Z,9.96
2023-02-11T12:09:22.799Z,10.04
2023-02-11T12:12:06.707Z,9.95
2023-02-11T12:14:38.999Z,9.87
2023-02-11T12:17:13.957Z,9.86
2023-02-11T12:20:03.595Z,9.97
2023-02-11T12:22:38.511Z,9.83
2023-02-11T12:25:24.786Z,9.90
2023-02-11T12:27:58.065Z,9.89
2023-02-11T12:30:35.629Z,9.99
2023-02-11T12:33:07.832Z,9.89
2023-02-11T12:35:42.215Z,9.86
2023-02-11T12:38:22.916Z,9.88
2023-02-11T12:40:56.493Z,9.76
2023-02-11T12:43:24.945Z,9.88
2023-02-11T12:46:09.008Z,9.79
2023-02-11T12:48:52.075Z,9.86
2023-02-11T12:51:25.543Z,9.78
2023-02-11T12:54:04.713Z,9.73
2023-02-11T12:56:38.886Z,9.67
2023-02-11T12:59:10.949Z,9.64
2023-02-11T13:01:41.915Z,9.65
2023-02-11T13:04:13.196Z,9.73
2023-02-11T13:06:42.966Z,9.63
2023-02-11T13:09:16.701Z,9.68
2023-02-11T13:11:52.038Z,9.67
2023-02-11T13:14:25.573Z,9.62
2023-02-11T13:16:54.780Z,9.60
2023-02-11T13:19:26.687Z,9.61
2023-02-11T13:22:01.399Z,9.63
2023-02-11T13:24:35.505Z,9.60
2023-02-11T13:27:08.135Z,9.55
2023-02-11T13:29:41.782Z,9.51
2023-02-11T13:32:11.354Z,9.52
2023-02-11T13:34:54.588Z,9.58
2023-02-11T13:37:24.196Z,9.63
2023-02-11T13:40:00.852Z,9.60
2023-02-11T13:42:29.423Z,9.54
2023-02-11T13:44:57.656Z,9.63
2023-02-11T13:47:31.024Z,9.64
2023-02-11T13:49:59.923Z,9.64
2023-02-11T13:52:30.590Z,9.52
2023-02-11T13:55:04.438Z,9.53
2023-02-11T13:57:34.904Z,9.58
2023-02-11T14:00:06.279Z,9.54
2023-02-11T14:02:59.568Z,9.55
2023-02-11T14:05:47.036Z,9.51
2023-02-11T14:08:37.589Z,9.45
2023-02-11T14:11:12.447Z,9.51
2023-02-11T14:14:13.819Z,9.51
2023-02-11T14:16:56.841Z,9.50
2023-02-11T14:19:33.121Z,9.43
2023-02-11T14:22:03.769Z,9.53
2023-02-11T14:24:46.612Z,9.50
2023-02-11T14:27:21.483Z,9.46
2023-02-11T14:29:54.870Z,9.43
2023-02-11T14:32:31.824Z,9.46
2023-02-11T14:35:05.902Z,9.42
2023-02-11T14:37:38.279Z,9.46
2023-02-11T14:40:12.014Z,9.45
2023-02-11T14:42:41.600Z,9.50
2023-02-11T14:45:12.326Z,9.38
2023-02-11T14:47:43.063Z,9.45
2023-02-11T14:50:16.931Z,9.48
2023-02-11T14:52:45.649Z,9.42
2023-02-11T14:55:20.171Z,9.36
2023-02-11T14:57:51.219Z,9.38
2023-02-11T15:00:20.933Z,9.38
2023-02-11T15:02:49.523Z,9.44
2023-02-11T15:05:19.188Z,9.38
2023-02-11T15:07:48.595Z,9.43
2023-02-11T15:10:22.474Z,9.38
2023-02-11T15:12:52.162Z,9.41
2023-02-11T15:15:20.410Z,9.31
2023-02-11T15:17:48.797Z,9.36
2023-02-11T15:20:21.744Z,9.34
2023-02-11T15:22:52.671Z,9.37
2023-02-11T15:25:22.870Z,9.24
2023-02-11T15:27:53.205Z,9.24
2023-02-11T15:30:25.937Z,9.28
2023-02-11T15:32:58.957Z,9.24
2023-02-11T15:35:28.687Z,9.27
2023-02-11T15:37:57.930Z,9.17
2023-02-11T15:40:27.964Z,9.15
2023-02-11T15:42:58.961Z,9.14
2023-02-11T15:45:30.877Z,9.18
2023-02-11T15:48:00.821Z,9.19
2023-02-11T15:50:30.346Z,9.15
2023-02-11T15:53:01.330Z,9.12
2023-02-11T15:55:30.604Z,9.14
2023-02-11T15:58:02.329Z,9.14
2023-02-11T16:00:33.208Z,9.14
2023-02-11T16:03:01.512Z,9.12
2023-02-11T16:05:31.664Z,9.08
2023-02-11T16:08:00.432Z,9.07
2023-02-11T16:10:29.955Z,9.03
2023-02-11T16:13:12.933Z,9.01
2023-02-11T16:15:47.128Z,8.99
2023-02-11T16:18:17.040Z,8.97
2023-02-11T16:20:48.265Z,8.97
2023-02-11T16:23:21.587Z,8.88
2023-02-11T16:25:50.295Z,8.97
2023-02-11T16:28:18.558Z,8.90
2023-02-11T16:30:52.887Z,8.92
2023-02-11T16:33:22.024Z,8.86
2023-02-11T16:35:50.344Z,8.88
2023-02-11T16:38:19.738Z,8.78
2023-02-11T16:40:49.473Z,8.78
2023-02-11T16:43:19.961Z,8.75
2023-02-11T16:45:49.899Z,8.70
2023-02-11T16:48:19.921Z,8.68
2023-02-11T16:50:52.876Z,8.65
2023-02-11T16:53:23.666Z,8.73
2023-02-11T16:55:53.204Z,8.63
2023-02-11T16:58:21.276Z,8.69
2023-02-11T17:00:51.558Z,8.64
2023-02-11T17:03:22.453Z,8.64
2023-02-11T17:05:55.771Z,8.57
2023-02-11T17:08:24.436Z,8.52
2023-02-11T17:10:52.898Z,8.44
2023-02-11T17:13:21.158Z,8.48
2023-02-11T17:15:50.941Z,8.41
2023-02-11T17:18:19.321Z,8.38
2023-02-11T17:20:47.417Z,8.36
2023-02-11T17:23:15.656Z,8.36
2023-02-11T17:25:44.124Z,8.32
2023-02-11T17:28:13.032Z,8.25
2023-02-11T17:30:42.196Z,8.23
2023-02-11T17:33:13.830Z,8.19
2023-02-11T17:35:42.193Z,8.17
2023-02-11T17:38:10.343Z,8.22
2023-02-11T17:40:38.672Z,8.12
2023-02-11T17:43:06.809Z,8.09
2023-02-11T17:45:39.388Z,8.17
2023-02-11T17:48:07.764Z,8.05
2023-02-11T17:50:38.150Z,8.09
2023-02-11T17:53:06.363Z,8.05
2023-02-11T17:55:34.970Z,8.08
2023-02-11T17:58:03.142Z,8.07
2023-02-11T18:00:31.902Z,8.02
2023-02-11T18:03:02.979Z,7.98
2023-02-11T18:05:35.301Z,8.03
2023-02-11T18:08:06.545Z,7.96
2023-02-11T18:10:34.991Z,7.91
2023-02-11T18:13:03.205Z,7.92
2023-02-11T18:15:31.212Z,7.94
2023-02-11T18:18:00.063Z,7.94
2023-02-11T18:20:28.231Z,7.97
2023-02-11T18:22:56.397Z,7.96
2023-02-11T18:25:26.053Z,7.91
2023-02-11T18:27:54.120Z,7.85
2023-02-11T18:30:22.453Z,7.86
2023-02-11T18:32:54.377Z,7.84
2023-02-11T18:35:22.488Z,7.85
2023-02-11T18:37:50.845Z,7.85
2023-02-11T18:40:19.443Z,7.81
2023-02-11T18:42:48.934Z,7.71
2023-02-11T18:45:17.011Z,7.75
2023-02-11T18:47:45.097Z,7.72
2023-02-11T18:50:15.657Z,7.71
2023-02-11T18:52:44.074Z,7.69
2023-02-11T18:55:12.268Z,7.64
2023-02-11T18:57:40.512Z,7.60
2023-02-11T19:00:11.583Z,7.62
2023-02-11T19:02:39.709Z,7.63
2023-02-11T19:05:08.248Z,7.62
2023-02-11T19:07:36.774Z,7.65
2023-02-11T19:10:05.507Z,7.66
2023-02-11T19:12:34.107Z,7.59
2023-02-11T19:15:02.179Z,7.64
2023-02-11T19:17:31.809Z,7.61
2023-02-11T19:20:00.298Z,7.60
2023-02-11T19:22:28.399Z,7.58
2023-02-11T19:24:56.489Z,7.60
2023-02-11T19:27:24.531Z,7.60
2023-02-11T19:29:52.635Z,7.58
2023-02-11T19:32:20.835Z,7.56
2023-02-11T19:34:52.555Z,7.57
2023-02-11T19:37:20.953Z,7.56
2023-02-11T19:39:49.120Z,7.53
2023-02-11T19:42:17.197Z,7.52
2023-02-11T19:44:45.722Z,7.50
2023-02-11T19:47:14.151Z,7.51
2023-02-11T19:49:42.631Z,7.51
2023-02-11T19:52:12.716Z,7.53
2023-02-11T19:54:40.910Z,7.50
2023-02-11T19:57:09.022Z,7.51
2023-02-11T19:59:37.114Z,7.46
2023-02-11T20:02:05.296Z,7.46
2023-02-11T20:04:33.525Z,7.42
2023-02-11T20:07:01.571Z,7.44
2023-02-11T20:09:31.841Z,7.43
2023-02-11T20:11:59.913Z,7.43
2023-02-11T20:14:28.315Z,7.40
2023-02-11T20:16:56.510Z,7.36
2023-02-11T20:19:24.605Z,7.35
2023-02-11T20:21:55.990Z,7.39
2023-02-11T20:24:25.117Z,7.36
2023-02-11T20:26:56.180Z,7.38
2023-02-11T20:29:24.938Z,7.39
2023-02-11T20:31:53.601Z,7.38
2023-02-11T20:34:22.378Z,7.34
2023-02-11T20:36:52.965Z,7.32
2023-02-11T20:39:22.513Z,7.35
2023-02-11T20:41:51.017Z,7.36
2023-02-11T20:44:21.858Z,7.37
2023-02-11T20:46:50.068Z,7.37
2023-02-11T20:49:19.238Z,7.34
2023-02-11T20:51:47.691Z,7.34
2023-02-11T20:54:17.275Z,7.30
2023-02-11T20:56:47.929Z,7.33
2023-02-11T20:59:17.000Z,7.34
2023-02-11T21:01:48.062Z,7.32
2023-02-11T21:04:17.461Z,7.32
2023-02-11T21:06:47.274Z,7.32
2023-02-11T21:09:16.534Z,7.29
2023-02-11T21:11:47.270Z,7.21
2023-02-11T21:14:16.302Z,7.28
2023-02-11T21:16:44.549Z,7.28
2023-02-11T21:19:15.726Z,7.30
2023-02-11T21:21:45.207Z,7.27
2023-02-11T21:24:13.753Z,7.22
2023-02-11T21:26:42.914Z,7.24
2023-02-11T21:29:13.055Z,7.24
2023-02-11T21:31:42.214Z,7.22
2023-02-11T21:34:11.804Z,7.23
2023-02-11T21:36:42.848Z,7.25
2023-02-11T21:39:13.678Z,7.25
2023-02-11T21:41:42.664Z,7.20
2023-02-11T21:44:11.437Z,7.16
2023-02-11T21:46:40.677Z,7.20
2023-02-11T21:49:09.703Z,7.18
2023-02-11T21:51:40.356Z,7.21
2023-02-11T21:54:12.177Z,7.20
2023-02-11T21:56:41.002Z,7.23
2023-02-11T21:59:09.295Z,7.22
2023-02-11T22:01:41.387Z,7.21
2023-02-11T22:04:14.921Z,7.19
2023-02-11T22:06:45.241Z,7.24
2023-02-11T22:09:14.772Z,7.25
2023-02-11T22:11:45.350Z,7.28
2023-02-11T22:14:14.478Z,7.25
2023-02-11T22:16:45.004Z,7.22
2023-02-11T22:19:13.878Z,7.20
2023-02-11T22:21:46.520Z,7.17
2023-02-11T22:24:17.181Z,7.16
2023-02-11T22:26:47.314Z,7.13
2023-02-11T22:29:16.875Z,7.17
2023-02-11T22:31:44.987Z,7.15
2023-02-11T22:34:14.342Z,7.13
2023-02-11T22:36:45.662Z,7.16
2023-02-11T22:39:15.277Z,7.17
2023-02-11T22:41:45.435Z,7.14
2023-02-11T22:44:13.874Z,7.17
2023-02-11T22:46:42.095Z,7.14
2023-02-11T22:49:16.754Z,7.13
2023-02-11T22:51:48.995Z,7.17
2023-02-11T22:54:18.927Z,7.06
2023-02-11T22:56:54.812Z,7.12
2023-02-11T22:59:26.030Z,7.11
2023-02-11T23:01:57.334Z,7.13
2023-02-11T23:04:25.886Z,7.11
2023-02-11T23:06:55.589Z,7.13
2023-02-11T23:09:24.094Z,7.13
2023-02-11T23:11:54.958Z,7.13
2023-02-11T23:14:24.349Z,7.15
2023-02-11T23:16:54.584Z,7.16
2023-02-11T23:19:24.862Z,7.16
2023-02-11T23:21:53.264Z,7.17
2023-02-11T23:24:23.484Z,7.15
2023-02-11T23:26:51.686Z,7.14
2023-02-11T23:29:21.446Z,7.08
2023-02-11T23:31:50.022Z,7.13
2023-02-11T23:34:26.643Z,7.14
2023-02-11T23:36:58.006Z,7.14
2023-02-11T23:39:28.631Z,7.13
2023-02-11T23:42:00.114Z,7.11
2023-02-11T23:44:31.167Z,7.09
2023-02-11T23:47:00.749Z,7.06
2023-02-11T23:49:28.897Z,7.00
2023-02-11T23:51:58.725Z,7.03
2023-02-11T23:54:28.509Z,6.98
2023-02-11T23:56:57.251Z,6.99
2023-02-11T23:59:27.023Z,6.96
